createdAt,value
2017-01-06T00:00:16.690Z,0
2017-01-06T00:01:25.751Z,0
2017-01-06T00:02:35.611Z,0
2017-01-06T00:03:45.398Z,0
2017-01-06T00:04:55.120Z,0
2017-01-06T00:06:07.284Z,0
2017-01-06T00:07:16.695Z,0
2017-01-06T00:08:26.091Z,0
2017-01-06T00:09:35.076Z,0
2017-01-06T00:10:44.762Z,0
2017-01-06T00:11:53.781Z,0
2017-01-06T00:13:03.557Z,0
2017-01-06T00:14:12.541Z,0
2017-01-06T00:15:21.898Z,0
2017-01-06T00:16:30.979Z,0
2017-01-06T00:17:39.958Z,0
2017-01-06T00:18:49.652Z,0
2017-01-06T00:19:58.627Z,0
2017-01-06T00:21:07.610Z,0
2017-01-06T00:22:16.588Z,0
2017-01-06T00:23:25.573Z,0
2017-01-06T00:24:34.550Z,0
2017-01-06T00:25:43.833Z,0
2017-01-06T00:26:52.947Z,0
2017-01-06T00:28:01.928Z,0
2017-01-06T00:29:12.550Z,0
2017-01-06T00:30:24.216Z,0
2017-01-06T00:31:33.898Z,0
2017-01-06T00:32:42.881Z,0
2017-01-06T00:33:52.736Z,0
2017-01-06T00:35:01.846Z,0
2017-01-06T00:36:10.826Z,0
2017-01-06T00:37:19.809Z,0
2017-01-06T00:38:28.811Z,0
2017-01-06T00:39:37.788Z,0
2017-01-06T00:40:46.769Z,0
2017-01-06T00:41:55.747Z,0
2017-01-06T00:43:04.729Z,0
2017-01-06T00:44:13.714Z,0
2017-01-06T00:45:22.694Z,0
2017-01-06T00:46:31.674Z,0
2017-01-06T00:47:40.654Z,0
2017-01-06T00:48:49.628Z,0
2017-01-06T00:49:58.608Z,0
2017-01-06T00:51:07.605Z,0
2017-01-06T00:52:16.952Z,0
2017-01-06T00:53:26.970Z,0
2017-01-06T00:55:07.982Z,0
2017-01-06T00:56:19.428Z,0
2017-01-06T00:58:01.181Z,0
2017-01-06T00:59:10.768Z,0
2017-01-06T01:00:20.157Z,0
2017-01-06T01:01:29.770Z,0
2017-01-06T01:02:39.172Z,0
2017-01-06T01:03:48.506Z,0
2017-01-06T01:04:57.790Z,0
2017-01-06T01:06:07.993Z,0
2017-01-06T01:07:16.973Z,0
2017-01-06T01:08:26.841Z,0
2017-01-06T01:09:36.235Z,0
2017-01-06T01:10:45.610Z,0
2017-01-06T01:11:55.135Z,0
2017-01-06T01:13:04.120Z,0
2017-01-06T01:14:13.141Z,0
2017-01-06T01:15:22.163Z,0
2017-01-06T01:16:31.268Z,0
2017-01-06T01:17:40.895Z,0
2017-01-06T01:18:49.872Z,0
2017-01-06T01:19:59.530Z,0
2017-01-06T01:21:08.995Z,0
2017-01-06T01:22:17.975Z,0
2017-01-06T01:23:27.163Z,0
2017-01-06T01:24:37.091Z,0
2017-01-06T01:25:46.064Z,0
2017-01-06T01:26:55.722Z,0
2017-01-06T01:28:05.001Z,0
2017-01-06T01:29:14.305Z,0
2017-01-06T01:30:24.218Z,0
2017-01-06T01:31:33.304Z,0
2017-01-06T01:32:42.519Z,0
2017-01-06T01:33:51.741Z,0
2017-01-06T01:35:00.719Z,0
2017-01-06T01:36:09.706Z,0
2017-01-06T01:37:18.826Z,0
2017-01-06T01:38:27.814Z,0
2017-01-06T01:39:36.795Z,0
2017-01-06T01:40:45.775Z,0
2017-01-06T01:41:54.990Z,0
2017-01-06T01:43:03.967Z,0
2017-01-06T01:44:12.943Z,0
2017-01-06T01:45:22.435Z,0
2017-01-06T01:46:31.416Z,0
2017-01-06T01:47:40.430Z,0
2017-01-06T01:48:49.611Z,0
2017-01-06T01:49:58.586Z,0
2017-01-06T01:51:08.287Z,0
2017-01-06T01:52:17.647Z,0
2017-01-06T01:53:26.829Z,0
2017-01-06T01:54:35.806Z,0
2017-01-06T01:55:44.844Z,0
2017-01-06T01:56:54.203Z,0
2017-01-06T01:58:03.185Z,0
2017-01-06T01:59:12.165Z,0
2017-01-06T02:00:21.142Z,0
2017-01-06T02:01:30.117Z,0
2017-01-06T02:02:39.346Z,0
2017-01-06T02:03:48.322Z,0
2017-01-06T02:04:57.345Z,0
2017-01-06T02:06:10.235Z,0
2017-01-06T02:07:22.094Z,0
2017-01-06T02:08:32.904Z,0
2017-01-06T02:09:43.152Z,0
2017-01-06T02:10:55.483Z,0
2017-01-06T02:12:07.788Z,0
2017-01-06T02:13:19.207Z,0
2017-01-06T02:14:29.627Z,0
2017-01-06T02:15:38.732Z,0
2017-01-06T02:16:49.355Z,0
2017-01-06T02:18:01.232Z,0
2017-01-06T02:19:12.809Z,0
2017-01-06T02:20:23.679Z,0
2017-01-06T02:21:32.655Z,0
2017-01-06T02:22:42.998Z,0
2017-01-06T02:23:53.756Z,0
2017-01-06T02:25:04.255Z,0
2017-01-06T02:26:13.242Z,0
2017-01-06T02:27:25.685Z,0
2017-01-06T02:28:35.703Z,0
2017-01-06T02:29:44.752Z,0
2017-01-06T02:30:53.727Z,0
2017-01-06T02:32:02.705Z,0
2017-01-06T02:33:11.683Z,0
2017-01-06T02:34:20.662Z,0
2017-01-06T02:35:29.643Z,0
2017-01-06T02:36:38.653Z,0
2017-01-06T02:37:47.627Z,0
2017-01-06T02:38:56.602Z,0
2017-01-06T02:40:05.583Z,0
2017-01-06T02:41:14.562Z,0
2017-01-06T02:42:23.951Z,0
2017-01-06T02:43:32.933Z,0
2017-01-06T02:44:41.913Z,0
2017-01-06T02:45:50.884Z,0
2017-01-06T02:46:59.861Z,0
2017-01-06T02:48:08.866Z,0
2017-01-06T02:49:17.847Z,0
2017-01-06T02:50:26.826Z,0
2017-01-06T02:51:35.833Z,0
2017-01-06T02:52:44.819Z,0
2017-01-06T02:53:53.800Z,0
2017-01-06T02:55:02.783Z,0
2017-01-06T02:56:11.761Z,0
2017-01-06T02:57:20.742Z,0
2017-01-06T02:58:29.719Z,0
2017-01-06T02:59:38.698Z,0
2017-01-06T03:00:47.676Z,0
2017-01-06T03:01:56.659Z,0
2017-01-06T03:03:05.635Z,0
2017-01-06T03:04:14.616Z,0
2017-01-06T03:05:23.590Z,0
2017-01-06T03:06:32.569Z,0
2017-01-06T03:07:41.544Z,0
2017-01-06T03:08:50.522Z,0
2017-01-06T03:09:59.507Z,0
2017-01-06T03:11:08.487Z,0
2017-01-06T03:12:17.470Z,0
2017-01-06T03:13:26.452Z,0
2017-01-06T03:14:35.434Z,0
2017-01-06T03:15:44.417Z,0
2017-01-06T03:16:53.398Z,0
2017-01-06T03:18:02.377Z,0
2017-01-06T03:19:11.354Z,0
2017-01-06T03:20:20.328Z,0
2017-01-06T03:21:29.304Z,0
2017-01-06T03:22:38.303Z,0
2017-01-06T03:23:47.277Z,0
2017-01-06T03:24:56.254Z,0
2017-01-06T03:26:05.232Z,0
2017-01-06T03:27:14.219Z,0
2017-01-06T03:28:23.194Z,0
2017-01-06T03:29:32.197Z,0
2017-01-06T03:30:41.172Z,0
2017-01-06T03:31:50.148Z,0
2017-01-06T03:32:59.123Z,0
2017-01-06T03:34:08.103Z,0
2017-01-06T03:35:17.086Z,0
2017-01-06T03:36:26.098Z,0
2017-01-06T03:37:35.077Z,0
2017-01-06T03:38:44.056Z,0
2017-01-06T03:39:53.031Z,0
2017-01-06T03:41:02.007Z,0
2017-01-06T03:42:10.987Z,0
2017-01-06T03:43:19.963Z,0
2017-01-06T03:44:28.937Z,0
2017-01-06T03:45:37.913Z,0
2017-01-06T03:46:46.887Z,0
2017-01-06T03:47:55.861Z,0
2017-01-06T03:49:04.837Z,0
2017-01-06T03:50:13.819Z,0
2017-01-06T03:51:22.797Z,0
2017-01-06T03:52:31.775Z,0
2017-01-06T03:53:40.760Z,0
2017-01-06T03:54:49.740Z,0
2017-01-06T03:55:58.716Z,0
2017-01-06T03:57:07.699Z,0
2017-01-06T03:58:16.670Z,0
2017-01-06T03:59:25.650Z,0
2017-01-06T04:00:34.629Z,0
2017-01-06T04:01:43.610Z,0
2017-01-06T04:02:52.591Z,0
2017-01-06T04:04:01.568Z,0
2017-01-06T04:05:10.545Z,0
2017-01-06T04:06:19.517Z,0
2017-01-06T04:07:28.495Z,0
2017-01-06T04:08:37.476Z,0
2017-01-06T04:09:46.477Z,0
2017-01-06T04:10:55.460Z,0
2017-01-06T04:12:04.437Z,0
2017-01-06T04:13:13.415Z,0
2017-01-06T04:14:22.390Z,0
2017-01-06T04:15:31.366Z,0
2017-01-06T04:16:40.352Z,0
2017-01-06T04:17:49.330Z,0
2017-01-06T04:18:58.306Z,0
2017-01-06T04:20:07.287Z,0
2017-01-06T04:21:16.266Z,0
2017-01-06T04:22:25.247Z,0
2017-01-06T04:23:34.228Z,0
2017-01-06T04:24:43.203Z,0
2017-01-06T04:25:52.175Z,0
2017-01-06T04:27:01.155Z,0
2017-01-06T04:28:10.131Z,0
2017-01-06T04:29:19.106Z,0
2017-01-06T04:30:28.082Z,0
2017-01-06T04:31:37.055Z,0
2017-01-06T04:32:46.042Z,0
2017-01-06T04:33:55.019Z,0
2017-01-06T04:35:03.994Z,0
2017-01-06T04:36:12.981Z,0
2017-01-06T04:37:21.956Z,0
2017-01-06T04:38:30.935Z,0
2017-01-06T04:39:39.911Z,0
2017-01-06T04:40:48.890Z,0
2017-01-06T04:41:57.865Z,0
2017-01-06T04:43:06.840Z,0
2017-01-06T04:44:15.818Z,0
2017-01-06T04:45:24.798Z,0
2017-01-06T04:46:33.778Z,0
2017-01-06T04:47:42.759Z,0
2017-01-06T04:48:51.734Z,0
2017-01-06T04:50:00.736Z,0
2017-01-06T04:51:09.722Z,0
2017-01-06T04:52:18.701Z,0
2017-01-06T04:53:27.707Z,0
2017-01-06T04:54:36.686Z,0
2017-01-06T04:55:45.661Z,0
2017-01-06T04:56:54.644Z,0
2017-01-06T04:58:03.624Z,0
2017-01-06T04:59:12.603Z,0
2017-01-06T05:00:21.583Z,0
2017-01-06T05:01:30.565Z,0
2017-01-06T05:02:39.542Z,0
2017-01-06T05:03:48.527Z,0
2017-01-06T05:04:57.508Z,0
2017-01-06T05:06:06.485Z,0
2017-01-06T05:07:15.461Z,0
2017-01-06T05:08:24.438Z,0
2017-01-06T05:09:33.420Z,0
2017-01-06T05:10:42.398Z,0
2017-01-06T05:11:51.381Z,0
2017-01-06T05:13:00.366Z,0
2017-01-06T05:14:09.346Z,0
2017-01-06T05:15:18.325Z,0
2017-01-06T05:16:27.301Z,0
2017-01-06T05:17:36.283Z,0
2017-01-06T05:18:45.259Z,0
2017-01-06T05:19:54.241Z,0
2017-01-06T05:21:03.223Z,0
2017-01-06T05:22:12.199Z,0
2017-01-06T05:23:21.208Z,0
2017-01-06T05:24:30.190Z,0
2017-01-06T05:25:39.168Z,0
2017-01-06T05:26:48.147Z,0
2017-01-06T05:27:57.128Z,0
2017-01-06T05:29:06.102Z,0
2017-01-06T05:30:15.075Z,0
2017-01-06T05:31:24.051Z,0
2017-01-06T05:32:33.029Z,0
2017-01-06T05:33:42.009Z,0
2017-01-06T05:34:50.991Z,0
2017-01-06T05:35:59.966Z,0
2017-01-06T05:37:08.948Z,0
2017-01-06T05:38:17.926Z,0
2017-01-06T05:39:26.907Z,0
2017-01-06T05:40:35.915Z,0
2017-01-06T05:41:44.888Z,0
2017-01-06T05:42:53.864Z,0
2017-01-06T05:44:02.848Z,0
2017-01-06T05:45:11.824Z,0
2017-01-06T05:46:20.804Z,0
2017-01-06T05:47:29.806Z,0
2017-01-06T05:48:38.806Z,0
2017-01-06T05:49:47.789Z,0
2017-01-06T05:50:56.771Z,0
2017-01-06T05:52:05.755Z,0
2017-01-06T05:53:14.731Z,0
2017-01-06T05:54:23.706Z,0
2017-01-06T05:55:32.720Z,0
2017-01-06T05:56:41.749Z,0
2017-01-06T05:57:50.797Z,0
2017-01-06T05:58:59.802Z,0
2017-01-06T06:00:08.781Z,0
2017-01-06T06:01:17.760Z,0
2017-01-06T06:02:26.739Z,0
2017-01-06T06:03:35.719Z,0
2017-01-06T06:04:44.698Z,0
2017-01-06T06:05:53.672Z,0
2017-01-06T06:07:02.650Z,0
2017-01-06T06:08:11.624Z,0
2017-01-06T06:09:20.606Z,0
2017-01-06T06:10:29.612Z,0
2017-01-06T06:11:38.592Z,0
2017-01-06T06:12:47.571Z,0
2017-01-06T06:13:56.548Z,0
2017-01-06T06:15:05.529Z,0
2017-01-06T06:16:14.505Z,0
2017-01-06T06:17:23.507Z,0
2017-01-06T06:18:32.481Z,0
2017-01-06T06:19:41.462Z,0
2017-01-06T06:20:50.435Z,0
2017-01-06T06:21:59.409Z,0
2017-01-06T06:23:08.388Z,0
2017-01-06T06:24:17.364Z,0
2017-01-06T06:25:26.339Z,0
2017-01-06T06:26:35.323Z,0
2017-01-06T06:27:44.298Z,0
2017-01-06T06:28:53.273Z,0
2017-01-06T06:30:02.248Z,0
2017-01-06T06:31:11.224Z,0
2017-01-06T06:32:20.199Z,0
2017-01-06T06:33:29.178Z,0
2017-01-06T06:34:38.156Z,0
2017-01-06T06:35:47.136Z,0
2017-01-06T06:36:56.110Z,0
2017-01-06T06:38:05.092Z,0
2017-01-06T06:39:14.097Z,0
2017-01-06T06:40:23.078Z,0
2017-01-06T06:41:32.055Z,0
2017-01-06T06:42:41.032Z,0
2017-01-06T06:43:50.009Z,0
2017-01-06T06:44:58.987Z,0
2017-01-06T06:46:07.970Z,0
2017-01-06T06:47:16.949Z,0
2017-01-06T06:48:25.932Z,0
2017-01-06T06:49:34.907Z,0
2017-01-06T06:50:43.885Z,0
2017-01-06T06:51:52.862Z,0
2017-01-06T06:53:01.870Z,0
2017-01-06T06:54:10.884Z,0
2017-01-06T06:55:19.858Z,0
2017-01-06T06:56:28.833Z,0
2017-01-06T06:57:37.807Z,0
2017-01-06T06:58:46.783Z,0
2017-01-06T06:59:55.764Z,0
2017-01-06T07:01:04.746Z,0
2017-01-06T07:02:13.728Z,0
2017-01-06T07:03:22.708Z,0
2017-01-06T07:04:31.685Z,0
2017-01-06T07:05:40.662Z,0
2017-01-06T07:06:49.643Z,0
2017-01-06T07:07:58.619Z,0
2017-01-06T07:09:07.598Z,0
2017-01-06T07:10:16.572Z,0
2017-01-06T07:11:25.555Z,0
2017-01-06T07:12:34.531Z,0
2017-01-06T07:13:43.508Z,0
2017-01-06T07:14:52.481Z,0
2017-01-06T07:16:01.457Z,0
2017-01-06T07:17:10.438Z,0
2017-01-06T07:18:19.414Z,0
2017-01-06T07:19:28.391Z,0
2017-01-06T07:20:37.368Z,0
2017-01-06T07:21:46.355Z,0
2017-01-06T07:22:55.330Z,5
2017-01-06T07:24:04.304Z,5
2017-01-06T07:25:13.290Z,5
2017-01-06T07:26:22.276Z,5
2017-01-06T07:27:31.255Z,5
2017-01-06T07:28:40.237Z,5
2017-01-06T07:29:49.213Z,5
2017-01-06T07:30:58.204Z,5
2017-01-06T07:32:07.177Z,5
2017-01-06T07:33:16.158Z,5
2017-01-06T07:34:25.143Z,5
2017-01-06T07:35:34.119Z,5
2017-01-06T07:36:43.097Z,5
2017-01-06T07:37:52.073Z,5
2017-01-06T07:39:01.054Z,5
2017-01-06T07:40:10.029Z,10
2017-01-06T07:41:19.003Z,10
2017-01-06T07:42:27.980Z,10
2017-01-06T07:43:36.982Z,10
2017-01-06T07:44:45.990Z,10
2017-01-06T07:45:54.968Z,10
2017-01-06T07:47:03.943Z,10
2017-01-06T07:48:12.920Z,10
2017-01-06T07:49:21.900Z,10
2017-01-06T07:50:30.877Z,10
2017-01-06T07:51:39.880Z,10
2017-01-06T07:52:48.858Z,10
2017-01-06T07:53:57.832Z,10
2017-01-06T07:55:06.812Z,10
2017-01-06T07:56:15.797Z,15
2017-01-06T07:57:24.779Z,15
2017-01-06T07:58:33.756Z,15
2017-01-06T07:59:42.773Z,15
2017-01-06T08:00:51.745Z,15
2017-01-06T08:02:00.726Z,15
2017-01-06T08:03:09.707Z,15
2017-01-06T08:04:18.688Z,15
2017-01-06T08:05:27.668Z,15
2017-01-06T08:06:36.652Z,15
2017-01-06T08:07:45.630Z,15
2017-01-06T08:08:54.610Z,15
2017-01-06T08:10:03.890Z,15
2017-01-06T08:11:12.960Z,15
2017-01-06T08:12:21.939Z,15
2017-01-06T08:13:30.918Z,15
2017-01-06T08:14:39.894Z,20
2017-01-06T08:15:48.869Z,20
2017-01-06T08:16:57.849Z,20
2017-01-06T08:18:06.825Z,20
2017-01-06T08:19:15.805Z,20
2017-01-06T08:20:24.780Z,20
2017-01-06T08:21:33.763Z,20
2017-01-06T08:22:42.748Z,20
2017-01-06T08:23:51.733Z,20
2017-01-06T08:25:00.713Z,20
2017-01-06T08:26:09.718Z,20
2017-01-06T08:27:18.699Z,20
2017-01-06T08:28:27.880Z,20
2017-01-06T08:29:36.858Z,20
2017-01-06T08:30:45.837Z,20
2017-01-06T08:31:54.814Z,20
2017-01-06T08:33:03.793Z,20
2017-01-06T08:34:12.773Z,25
2017-01-06T08:35:21.751Z,25
2017-01-06T08:36:30.736Z,25
2017-01-06T08:37:39.717Z,25
2017-01-06T08:38:48.704Z,25
2017-01-06T08:39:57.679Z,25
2017-01-06T08:41:06.657Z,25
2017-01-06T08:42:15.634Z,25
2017-01-06T08:43:24.609Z,25
2017-01-06T08:44:33.582Z,25
2017-01-06T08:45:43.853Z,25
2017-01-06T08:46:54.122Z,25
2017-01-06T08:48:05.269Z,25
2017-01-06T08:49:14.248Z,25
2017-01-06T08:50:23.289Z,25
2017-01-06T08:51:32.264Z,25
2017-01-06T08:52:41.244Z,25
2017-01-06T08:53:50.224Z,25
2017-01-06T08:54:59.200Z,30
2017-01-06T08:56:08.186Z,30
2017-01-06T08:57:17.164Z,30
2017-01-06T08:58:26.144Z,30
2017-01-06T08:59:35.118Z,30
2017-01-06T09:00:44.097Z,30
2017-01-06T09:01:53.076Z,30
2017-01-06T09:03:02.051Z,30
2017-01-06T09:04:11.032Z,30
2017-01-06T09:05:20.009Z,30
2017-01-06T09:06:28.990Z,30
2017-01-06T09:07:38.250Z,30
2017-01-06T09:08:47.225Z,30
2017-01-06T09:09:56.202Z,30
2017-01-06T09:11:05.188Z,30
2017-01-06T09:12:14.170Z,30
2017-01-06T09:13:23.152Z,30
2017-01-06T09:14:32.130Z,30
2017-01-06T09:15:41.105Z,30
2017-01-06T09:16:50.091Z,30
2017-01-06T09:17:59.117Z,30
2017-01-06T09:19:08.094Z,30
2017-01-06T09:20:17.075Z,30
2017-01-06T09:21:26.060Z,30
2017-01-06T09:22:35.041Z,30
2017-01-06T09:23:44.030Z,30
2017-01-06T09:24:53.007Z,30
2017-01-06T09:26:01.986Z,30
2017-01-06T09:27:10.973Z,30
2017-01-06T09:28:19.950Z,30
2017-01-06T09:29:29.073Z,30
2017-01-06T09:30:38.268Z,30
2017-01-06T09:31:47.249Z,35
2017-01-06T09:32:56.374Z,35
2017-01-06T09:34:05.639Z,35
2017-01-06T09:35:15.143Z,40
2017-01-06T09:36:24.146Z,40
2017-01-06T09:37:33.332Z,40
2017-01-06T09:38:42.318Z,45
2017-01-06T09:39:51.304Z,45
2017-01-06T09:41:00.441Z,45
2017-01-06T09:42:09.418Z,45
2017-01-06T09:43:18.621Z,45
2017-01-06T09:44:27.931Z,45
2017-01-06T09:45:37.139Z,45
2017-01-06T09:46:46.121Z,45
2017-01-06T09:47:55.099Z,45
2017-01-06T09:49:04.964Z,40
2017-01-06T09:50:14.171Z,40
2017-01-06T09:51:23.157Z,35
2017-01-06T09:52:32.376Z,35
2017-01-06T09:53:41.578Z,35
2017-01-06T09:54:50.752Z,35
2017-01-06T09:55:59.855Z,35
2017-01-06T09:57:09.571Z,35
2017-01-06T09:58:19.266Z,35
2017-01-06T09:59:28.249Z,35
2017-01-06T10:00:37.231Z,35
2017-01-06T10:01:46.678Z,35
2017-01-06T10:02:56.018Z,35
2017-01-06T10:04:04.999Z,35
2017-01-06T10:05:14.386Z,35
2017-01-06T10:06:23.712Z,35
2017-01-06T10:07:32.687Z,35
2017-01-06T10:08:41.686Z,35
2017-01-06T10:09:50.680Z,35
2017-01-06T10:11:00.109Z,35
2017-01-06T10:12:09.093Z,35
2017-01-06T10:13:18.075Z,35
2017-01-06T10:14:27.569Z,35
2017-01-06T10:15:36.919Z,35
2017-01-06T10:16:46.413Z,35
2017-01-06T10:17:55.631Z,35
2017-01-06T10:19:05.114Z,35
2017-01-06T10:20:14.780Z,35
2017-01-06T10:21:24.276Z,35
2017-01-06T10:22:34.336Z,35
2017-01-06T10:23:44.117Z,35
2017-01-06T10:24:53.429Z,40
2017-01-06T10:26:02.771Z,35
2017-01-06T10:27:11.747Z,35
2017-01-06T10:28:21.432Z,40
2017-01-06T10:29:31.137Z,40
2017-01-06T10:30:40.117Z,40
2017-01-06T10:31:49.287Z,40
2017-01-06T10:32:58.379Z,40
2017-01-06T10:34:07.360Z,40
2017-01-06T10:35:16.340Z,40
2017-01-06T10:36:25.494Z,40
2017-01-06T10:37:34.632Z,40
2017-01-06T10:38:43.921Z,40
2017-01-06T10:39:53.038Z,40
2017-01-06T10:41:02.014Z,40
2017-01-06T10:42:10.995Z,40
2017-01-06T10:43:20.334Z,40
2017-01-06T10:44:29.321Z,40
2017-01-06T10:45:38.305Z,45
2017-01-06T10:46:47.293Z,45
2017-01-06T10:47:56.682Z,45
2017-01-06T10:49:05.661Z,45
2017-01-06T10:50:16.107Z,45
2017-01-06T10:51:26.335Z,45
2017-01-06T10:52:35.380Z,45
2017-01-06T10:53:44.650Z,50
2017-01-06T10:54:54.362Z,50
2017-01-06T10:56:03.774Z,50
2017-01-06T10:57:12.896Z,50
2017-01-06T10:58:21.884Z,45
2017-01-06T10:59:30.948Z,45
2017-01-06T11:00:40.072Z,45
2017-01-06T11:01:49.378Z,45
2017-01-06T11:02:58.623Z,40
2017-01-06T11:04:08.025Z,40
2017-01-06T11:05:17.007Z,40
2017-01-06T11:06:26.076Z,40
2017-01-06T11:07:35.241Z,45
2017-01-06T11:08:44.225Z,45
2017-01-06T11:09:53.511Z,45
2017-01-06T11:11:02.784Z,45
2017-01-06T11:12:12.080Z,45
2017-01-06T11:13:21.057Z,45
2017-01-06T11:14:30.039Z,45
2017-01-06T11:15:39.019Z,45
2017-01-06T11:16:48.183Z,45
2017-01-06T11:17:57.480Z,45
2017-01-06T11:19:06.458Z,45
2017-01-06T11:20:15.767Z,45
2017-01-06T11:21:24.744Z,45
2017-01-06T11:22:33.788Z,45
2017-01-06T11:23:42.772Z,45
2017-01-06T11:24:51.752Z,45
2017-01-06T11:26:00.966Z,45
2017-01-06T11:27:10.733Z,45
2017-01-06T11:28:21.022Z,45
2017-01-06T11:29:32.880Z,45
2017-01-06T11:30:43.405Z,45
2017-01-06T11:31:53.588Z,45
2017-01-06T11:33:04.745Z,45
2017-01-06T11:34:15.297Z,45
2017-01-06T11:35:26.528Z,45
2017-01-06T11:36:36.691Z,45
2017-01-06T11:37:47.525Z,45
2017-01-06T11:38:56.660Z,45
2017-01-06T11:40:05.722Z,45
2017-01-06T11:41:14.763Z,45
2017-01-06T11:42:24.196Z,45
2017-01-06T11:43:33.176Z,45
2017-01-06T11:44:42.242Z,45
2017-01-06T11:45:51.372Z,45
2017-01-06T11:47:01.015Z,45
2017-01-06T11:48:10.024Z,45
2017-01-06T11:49:19.135Z,45
2017-01-06T11:50:28.159Z,45
2017-01-06T11:51:37.703Z,45
2017-01-06T11:52:47.009Z,45
2017-01-06T11:53:56.105Z,45
2017-01-06T11:55:05.320Z,45
2017-01-06T11:56:14.301Z,45
2017-01-06T11:57:23.279Z,45
2017-01-06T11:58:32.293Z,45
2017-01-06T11:59:41.290Z,45
2017-01-06T12:00:50.576Z,45
2017-01-06T12:02:00.083Z,45
2017-01-06T12:03:09.061Z,45
2017-01-06T12:04:18.046Z,45
2017-01-06T12:05:27.076Z,45
2017-01-06T12:06:36.803Z,45
2017-01-06T12:07:46.162Z,45
2017-01-06T12:08:55.662Z,45
2017-01-06T12:10:05.221Z,45
2017-01-06T12:11:14.203Z,45
2017-01-06T12:12:23.192Z,45
2017-01-06T12:13:32.180Z,45
2017-01-06T12:14:41.160Z,45
2017-01-06T12:15:50.763Z,45
2017-01-06T12:16:59.746Z,45
2017-01-06T12:18:08.735Z,45
2017-01-06T12:19:17.713Z,45
2017-01-06T12:20:26.696Z,45
2017-01-06T12:21:35.677Z,45
2017-01-06T12:22:44.657Z,40
2017-01-06T12:23:53.634Z,40
2017-01-06T12:25:02.620Z,40
2017-01-06T12:26:11.599Z,40
2017-01-06T12:27:20.580Z,40
2017-01-06T12:28:29.563Z,40
2017-01-06T12:29:38.538Z,40
2017-01-06T12:30:47.523Z,40
2017-01-06T12:31:56.506Z,40
2017-01-06T12:33:05.484Z,40
2017-01-06T12:34:14.468Z,40
2017-01-06T12:35:23.451Z,40
2017-01-06T12:36:32.846Z,40
2017-01-06T12:37:42.789Z,40
2017-01-06T12:38:51.767Z,40
2017-01-06T12:40:00.747Z,40
2017-01-06T12:41:09.735Z,40
2017-01-06T12:42:18.716Z,40
2017-01-06T12:43:27.695Z,40
2017-01-06T12:44:36.672Z,40
2017-01-06T12:45:45.658Z,40
2017-01-06T12:46:54.699Z,40
2017-01-06T12:48:03.921Z,40
2017-01-06T12:49:12.966Z,40
2017-01-06T12:50:21.950Z,40
2017-01-06T12:51:30.938Z,40
2017-01-06T12:52:39.923Z,40
2017-01-06T12:53:48.907Z,40
2017-01-06T12:54:57.923Z,40
2017-01-06T12:56:06.938Z,40
2017-01-06T12:57:15.948Z,40
2017-01-06T12:58:24.957Z,40
2017-01-06T12:59:33.968Z,40
2017-01-06T13:00:42.977Z,40
2017-01-06T13:01:51.980Z,40
2017-01-06T13:03:00.984Z,40
2017-01-06T13:04:09.973Z,40
2017-01-06T13:05:18.969Z,35
2017-01-06T13:06:42.809Z,35
2017-01-06T13:07:51.842Z,35
2017-01-06T13:09:00.827Z,35
2017-01-06T13:10:09.808Z,35
2017-01-06T13:11:18.794Z,35
2017-01-06T13:12:27.777Z,35
2017-01-06T13:13:36.760Z,35
2017-01-06T13:14:45.763Z,35
2017-01-06T13:15:54.748Z,35
2017-01-06T13:17:03.733Z,35
2017-01-06T13:18:12.712Z,35
2017-01-06T13:19:21.696Z,30
2017-01-06T13:20:30.679Z,30
2017-01-06T13:21:39.659Z,30
2017-01-06T13:22:48.640Z,30
2017-01-06T13:23:57.621Z,30
2017-01-06T13:25:06.608Z,30
2017-01-06T13:26:15.587Z,30
2017-01-06T13:27:25.638Z,30
2017-01-06T13:28:35.214Z,30
2017-01-06T13:29:44.196Z,30
2017-01-06T13:30:53.175Z,30
2017-01-06T13:32:02.196Z,30
2017-01-06T13:33:11.191Z,30
2017-01-06T13:34:20.169Z,30
2017-01-06T13:35:29.148Z,30
2017-01-06T13:36:38.131Z,30
2017-01-06T13:37:47.107Z,30
2017-01-06T13:38:56.092Z,30
2017-01-06T13:40:05.077Z,30
2017-01-06T13:41:14.055Z,25
2017-01-06T13:42:23.060Z,25
2017-01-06T13:43:32.043Z,25
2017-01-06T13:44:41.037Z,25
2017-01-06T13:45:50.023Z,25
2017-01-06T13:46:59.001Z,25
2017-01-06T13:48:07.985Z,25
2017-01-06T13:49:16.972Z,25
2017-01-06T13:50:25.956Z,25
2017-01-06T13:51:34.937Z,25
2017-01-06T13:52:43.916Z,25
2017-01-06T13:53:52.904Z,25
2017-01-06T13:55:01.885Z,25
2017-01-06T13:56:10.867Z,25
2017-01-06T13:57:19.844Z,25
2017-01-06T13:58:28.828Z,25
2017-01-06T13:59:38.224Z,25
2017-01-06T14:00:47.208Z,25
2017-01-06T14:01:56.187Z,20
2017-01-06T14:03:05.171Z,20
2017-01-06T14:04:14.154Z,20
2017-01-06T14:05:23.129Z,20
2017-01-06T14:06:32.110Z,20
2017-01-06T14:07:41.092Z,20
2017-01-06T14:08:50.071Z,20
2017-01-06T14:09:59.050Z,20
2017-01-06T14:11:08.028Z,20
2017-01-06T14:12:17.010Z,20
2017-01-06T14:13:25.991Z,20
2017-01-06T14:14:34.972Z,20
2017-01-06T14:15:43.953Z,20
2017-01-06T14:16:52.931Z,20
2017-01-06T14:18:01.916Z,15
2017-01-06T14:19:10.898Z,15
2017-01-06T14:20:19.880Z,15
2017-01-06T14:21:28.860Z,15
2017-01-06T14:22:37.840Z,15
2017-01-06T14:23:46.819Z,15
2017-01-06T14:24:55.800Z,15
2017-01-06T14:26:04.783Z,15
2017-01-06T14:27:13.797Z,15
2017-01-06T14:28:22.778Z,15
2017-01-06T14:29:31.764Z,15
2017-01-06T14:30:40.753Z,15
2017-01-06T14:31:49.734Z,15
2017-01-06T14:32:58.712Z,15
2017-01-06T14:34:07.695Z,10
2017-01-06T14:35:16.674Z,10
2017-01-06T14:36:25.652Z,10
2017-01-06T14:37:34.630Z,10
2017-01-06T14:38:43.607Z,10
2017-01-06T14:39:52.584Z,10
2017-01-06T14:41:01.563Z,10
2017-01-06T14:42:10.552Z,10
2017-01-06T14:43:19.530Z,10
2017-01-06T14:44:28.509Z,10
2017-01-06T14:45:37.491Z,10
2017-01-06T14:46:46.472Z,10
2017-01-06T14:47:55.448Z,5
2017-01-06T14:49:04.426Z,5
2017-01-06T14:50:13.421Z,5
2017-01-06T14:51:22.397Z,5
2017-01-06T14:52:31.372Z,5
2017-01-06T14:53:40.355Z,5
2017-01-06T14:54:49.338Z,5
2017-01-06T14:55:58.317Z,5
2017-01-06T14:57:07.302Z,5
2017-01-06T14:58:16.284Z,5
2017-01-06T14:59:25.263Z,5
2017-01-06T15:00:34.247Z,5
2017-01-06T15:01:43.227Z,5
2017-01-06T15:02:52.202Z,5
2017-01-06T15:04:01.187Z,0
2017-01-06T15:05:10.168Z,0
2017-01-06T15:06:19.147Z,0
2017-01-06T15:07:28.123Z,0
2017-01-06T15:08:37.106Z,0
2017-01-06T15:09:46.085Z,0
2017-01-06T15:10:55.071Z,0
2017-01-06T15:12:04.049Z,0
2017-01-06T15:13:13.034Z,0
2017-01-06T15:14:22.015Z,0
2017-01-06T15:15:30.997Z,0
2017-01-06T15:16:39.977Z,0
2017-01-06T15:17:48.957Z,0
2017-01-06T15:18:57.938Z,0
2017-01-06T15:20:06.918Z,0
2017-01-06T15:21:15.904Z,0
2017-01-06T15:22:24.887Z,0
2017-01-06T15:23:33.865Z,0
2017-01-06T15:24:42.927Z,0
2017-01-06T15:25:52.583Z,0
2017-01-06T15:27:01.908Z,0
2017-01-06T15:28:12.473Z,0
2017-01-06T15:29:22.360Z,0
2017-01-06T15:30:32.014Z,0
2017-01-06T15:31:41.665Z,0
2017-01-06T15:32:52.083Z,0
2017-01-06T15:34:02.191Z,0
2017-01-06T15:35:12.569Z,0
2017-01-06T15:36:23.189Z,0
2017-01-06T15:37:32.582Z,0
2017-01-06T15:38:41.569Z,0
2017-01-06T15:39:52.574Z,0
2017-01-06T15:41:02.568Z,0
2017-01-06T15:42:12.193Z,0
2017-01-06T15:43:22.166Z,0
2017-01-06T15:44:32.285Z,0
2017-01-06T15:45:41.982Z,0
2017-01-06T15:46:50.991Z,0
2017-01-06T15:47:59.994Z,0
2017-01-06T15:49:08.973Z,0
2017-01-06T15:50:17.952Z,0
2017-01-06T15:51:26.933Z,0
2017-01-06T15:52:35.915Z,0
2017-01-06T15:53:44.895Z,0
2017-01-06T15:54:53.874Z,0
2017-01-06T15:56:03.251Z,0
2017-01-06T15:57:12.391Z,0
2017-01-06T15:58:21.373Z,0
2017-01-06T15:59:41.225Z,0
2017-01-06T16:00:53.762Z,0
2017-01-06T16:02:02.743Z,0
2017-01-06T16:03:11.721Z,0
2017-01-06T16:04:20.706Z,0
2017-01-06T16:05:29.687Z,0
2017-01-06T16:06:38.667Z,0
2017-01-06T16:07:47.671Z,0
2017-01-06T16:08:56.654Z,0
2017-01-06T16:10:05.635Z,0
2017-01-06T16:11:14.624Z,0
2017-01-06T16:12:23.628Z,0
2017-01-06T16:13:32.607Z,0
2017-01-06T16:14:41.584Z,0
2017-01-06T16:15:50.565Z,0
2017-01-06T16:16:59.544Z,0
2017-01-06T16:18:08.527Z,0
2017-01-06T16:19:17.921Z,0
2017-01-06T16:20:26.911Z,0
2017-01-06T16:21:35.894Z,0
2017-01-06T16:22:44.871Z,0
2017-01-06T16:23:53.849Z,0
2017-01-06T16:25:02.840Z,0
2017-01-06T16:26:11.820Z,0
2017-01-06T16:27:20.796Z,0
2017-01-06T16:28:29.776Z,0
2017-01-06T16:29:38.787Z,0
2017-01-06T16:30:47.769Z,0
2017-01-06T16:31:56.746Z,0
2017-01-06T16:33:05.722Z,0
2017-01-06T16:34:14.701Z,0
2017-01-06T16:35:23.681Z,0
2017-01-06T16:36:32.654Z,0
2017-01-06T16:37:43.097Z,0
2017-01-06T16:38:52.074Z,0
2017-01-06T16:40:01.057Z,0
2017-01-06T16:41:10.040Z,0
2017-01-06T16:42:20.971Z,0
2017-01-06T16:43:29.992Z,0
2017-01-06T16:44:39.012Z,0
2017-01-06T16:45:47.993Z,0
2017-01-06T16:46:56.996Z,0
2017-01-06T16:48:05.980Z,0